sensor_id;sensor_type;location;lat;lon;timestamp;P1;durP1;ratioP1;P2;durP2;ratioP2
23586;SDS011;11971;51.148;4.104;2022-07-15T00:02:15;9.38;;;4.80;;
23586;SDS011;11971;51.148;4.104;2022-07-15T00:04:42;12.32;;;4.63;;
23586;SDS011;11971;51.148;4.104;2022-07-15T00:07:09;9.95;;;4.32;;
23586;SDS011;11971;51.148;4.104;2022-07-15T00:09:38;7.07;;;3.87;;
23586;SDS011;11971;51.148;4.104;2022-07-15T00:12:25;6.80;;;3.72;;
23586;SDS011;11971;51.148;4.104;2022-07-15T00:14:52;9.70;;;4.10;;
23586;SDS011;11971;51.148;4.104;2022-07-15T00:17:19;8.27;;;4.57;;
23586;SDS011;11971;51.148;4.104;2022-07-15T00:19:46;8.73;;;4.45;;
23586;SDS011;11971;51.148;4.104;2022-07-15T00:22:14;5.57;;;4.20;;
23586;SDS011;11971;51.148;4.104;2022-07-15T00:24:41;9.38;;;4.68;;
23586;SDS011;11971;51.148;4.104;2022-07-15T00:27:08;10.82;;;4.82;;
23586;SDS011;11971;51.148;4.104;2022-07-15T00:29:37;6.72;;;4.30;;
23586;SDS011;11971;51.148;4.104;2022-07-15T00:32:05;12.60;;;5.10;;
23586;SDS011;11971;51.148;4.104;2022-07-15T00:34:32;7.50;;;4.00;;
23586;SDS011;11971;51.148;4.104;2022-07-15T00:36:59;7.13;;;3.40;;
23586;SDS011;11971;51.148;4.104;2022-07-15T00:39:26;9.65;;;3.50;;
23586;SDS011;11971;51.148;4.104;2022-07-15T00:41:54;9.20;;;4.43;;
23586;SDS011;11971;51.148;4.104;2022-07-15T00:44:21;7.30;;;4.28;;
23586;SDS011;11971;51.148;4.104;2022-07-15T00:46:50;9.15;;;4.00;;
23586;SDS011;11971;51.148;4.104;2022-07-15T00:49:18;8.65;;;4.53;;
23586;SDS011;11971;51.148;4.104;2022-07-15T00:51:46;7.82;;;4.00;;
23586;SDS011;11971;51.148;4.104;2022-07-15T00:54:14;5.30;;;3.33;;
23586;SDS011;11971;51.148;4.104;2022-07-15T00:56:43;3.53;;;2.75;;
23586;SDS011;11971;51.148;4.104;2022-07-15T00:59:11;7.40;;;3.22;;
23586;SDS011;11971;51.148;4.104;2022-07-15T01:01:39;8.43;;;4.50;;
23586;SDS011;11971;51.148;4.104;2022-07-15T01:04:08;9.98;;;4.38;;
23586;SDS011;11971;51.148;4.104;2022-07-15T01:06:36;8.85;;;4.80;;
23586;SDS011;11971;51.148;4.104;2022-07-15T01:09:03;9.30;;;4.07;;
23586;SDS011;11971;51.148;4.104;2022-07-15T01:11:31;10.77;;;5.30;;
23586;SDS011;11971;51.148;4.104;2022-07-15T01:13:58;16.00;;;5.63;;
23586;SDS011;11971;51.148;4.104;2022-07-15T01:16:26;11.95;;;5.47;;
23586;SDS011;11971;51.148;4.104;2022-07-15T01:18:53;14.73;;;5.93;;
23586;SDS011;11971;51.148;4.104;2022-07-15T01:21:22;11.20;;;4.68;;
23586;SDS011;11971;51.148;4.104;2022-07-15T01:23:49;9.40;;;3.42;;
23586;SDS011;11971;51.148;4.104;2022-07-15T01:26:16;6.72;;;4.03;;
23586;SDS011;11971;51.148;4.104;2022-07-15T01:28:44;6.53;;;4.10;;
23586;SDS011;11971;51.148;4.104;2022-07-15T01:31:12;11.15;;;4.20;;
23586;SDS011;11971;51.148;4.104;2022-07-15T01:33:39;12.18;;;5.50;;
23586;SDS011;11971;51.148;4.104;2022-07-15T01:36:07;12.35;;;5.00;;
23586;SDS011;11971;51.148;4.104;2022-07-15T01:38:35;10.73;;;4.72;;
23586;SDS011;11971;51.148;4.104;2022-07-15T01:41:03;9.50;;;5.07;;
23586;SDS011;11971;51.148;4.104;2022-07-15T01:43:30;9.68;;;4.78;;
23586;SDS011;11971;51.148;4.104;2022-07-15T01:45:57;9.60;;;4.63;;
23586;SDS011;11971;51.148;4.104;2022-07-15T01:48:24;9.75;;;3.70;;
23586;SDS011;11971;51.148;4.104;2022-07-15T01:51:09;4.45;;;2.50;;
23586;SDS011;11971;51.148;4.104;2022-07-15T01:53:38;9.98;;;3.40;;
23586;SDS011;11971;51.148;4.104;2022-07-15T01:56:05;9.10;;;4.63;;
23586;SDS011;11971;51.148;4.104;2022-07-15T01:58:33;9.57;;;4.85;;
23586;SDS011;11971;51.148;4.104;2022-07-15T02:01:00;12.60;;;4.97;;
23586;SDS011;11971;51.148;4.104;2022-07-15T02:03:28;10.93;;;5.28;;
23586;SDS011;11971;51.148;4.104;2022-07-15T02:05:55;15.10;;;5.50;;
23586;SDS011;11971;51.148;4.104;2022-07-15T02:08:22;14.68;;;5.50;;
23586;SDS011;11971;51.148;4.104;2022-07-15T02:10:51;13.68;;;5.05;;
23586;SDS011;11971;51.148;4.104;2022-07-15T02:13:18;12.73;;;5.30;;
23586;SDS011;11971;51.148;4.104;2022-07-15T02:15:46;13.30;;;5.53;;
23586;SDS011;11971;51.148;4.104;2022-07-15T02:18:14;9.73;;;5.40;;
23586;SDS011;11971;51.148;4.104;2022-07-15T02:20:41;10.90;;;4.85;;
23586;SDS011;11971;51.148;4.104;2022-07-15T02:23:08;9.38;;;4.90;;
23586;SDS011;11971;51.148;4.104;2022-07-15T02:25:35;13.10;;;5.63;;
23586;SDS011;11971;51.148;4.104;2022-07-15T02:28:05;13.23;;;3.28;;
23586;SDS011;11971;51.148;4.104;2022-07-15T02:30:33;7.72;;;3.78;;
23586;SDS011;11971;51.148;4.104;2022-07-15T02:33:01;13.10;;;5.57;;
23586;SDS011;11971;51.148;4.104;2022-07-15T02:35:29;11.65;;;5.22;;
23586;SDS011;11971;51.148;4.104;2022-07-15T02:37:56;11.70;;;5.65;;
23586;SDS011;11971;51.148;4.104;2022-07-15T02:40:24;11.90;;;5.82;;
23586;SDS011;11971;51.148;4.104;2022-07-15T02:42:52;15.05;;;5.47;;
23586;SDS011;11971;51.148;4.104;2022-07-15T02:45:21;22.13;;;6.15;;
23586;SDS011;11971;51.148;4.104;2022-07-15T02:47:49;11.68;;;5.47;;
23586;SDS011;11971;51.148;4.104;2022-07-15T02:50:17;13.00;;;5.78;;
23586;SDS011;11971;51.148;4.104;2022-07-15T02:52:45;13.52;;;5.72;;
23586;SDS011;11971;51.148;4.104;2022-07-15T02:55:14;10.50;;;4.85;;
23586;SDS011;11971;51.148;4.104;2022-07-15T02:57:42;14.05;;;5.25;;
23586;SDS011;11971;51.148;4.104;2022-07-15T03:00:10;9.55;;;5.38;;
23586;SDS011;11971;51.148;4.104;2022-07-15T03:02:39;10.53;;;5.50;;
23586;SDS011;11971;51.148;4.104;2022-07-15T03:05:06;8.90;;;5.13;;
23586;SDS011;11971;51.148;4.104;2022-07-15T03:07:34;11.77;;;4.97;;
23586;SDS011;11971;51.148;4.104;2022-07-15T03:10:01;12.73;;;4.90;;
23586;SDS011;11971;51.148;4.104;2022-07-15T03:12:28;10.45;;;4.72;;
23586;SDS011;11971;51.148;4.104;2022-07-15T03:14:56;10.35;;;4.72;;
23586;SDS011;11971;51.148;4.104;2022-07-15T03:17:23;13.43;;;5.18;;
23586;SDS011;11971;51.148;4.104;2022-07-15T03:19:52;10.32;;;4.82;;
23586;SDS011;11971;51.148;4.104;2022-07-15T03:22:20;13.10;;;4.85;;
23586;SDS011;11971;51.148;4.104;2022-07-15T03:24:47;11.18;;;4.70;;
23586;SDS011;11971;51.148;4.104;2022-07-15T03:27:15;9.27;;;4.97;;
23586;SDS011;11971;51.148;4.104;2022-07-15T03:29:42;10.73;;;4.93;;
23586;SDS011;11971;51.148;4.104;2022-07-15T03:32:10;10.50;;;4.82;;
23586;SDS011;11971;51.148;4.104;2022-07-15T03:34:40;9.23;;;4.43;;
23586;SDS011;11971;51.148;4.104;2022-07-15T03:37:12;7.10;;;4.53;;
23586;SDS011;11971;51.148;4.104;2022-07-15T03:39:39;8.43;;;4.50;;
23586;SDS011;11971;51.148;4.104;2022-07-15T03:42:06;10.32;;;4.80;;
23586;SDS011;11971;51.148;4.104;2022-07-15T03:44:34;11.57;;;4.85;;
23586;SDS011;11971;51.148;4.104;2022-07-15T03:47:01;8.10;;;4.70;;
23586;SDS011;11971;51.148;4.104;2022-07-15T03:49:28;12.80;;;4.80;;
23586;SDS011;11971;51.148;4.104;2022-07-15T03:51:56;10.25;;;4.50;;
23586;SDS011;11971;51.148;4.104;2022-07-15T03:54:26;8.95;;;4.40;;
23586;SDS011;11971;51.148;4.104;2022-07-15T03:56:55;8.85;;;4.38;;
23586;SDS011;11971;51.148;4.104;2022-07-15T03:59:22;13.25;;;4.85;;
23586;SDS011;11971;51.148;4.104;2022-07-15T04:01:49;10.85;;;4.70;;
23586;SDS011;11971;51.148;4.104;2022-07-15T04:04:17;11.07;;;4.60;;
23586;SDS011;11971;51.148;4.104;2022-07-15T04:06:44;12.07;;;5.03;;
23586;SDS011;11971;51.148;4.104;2022-07-15T04:09:11;11.25;;;5.05;;
23586;SDS011;11971;51.148;4.104;2022-07-15T04:11:40;9.40;;;4.80;;
23586;SDS011;11971;51.148;4.104;2022-07-15T04:14:08;10.15;;;4.57;;
23586;SDS011;11971;51.148;4.104;2022-07-15T04:16:36;12.82;;;4.80;;
23586;SDS011;11971;51.148;4.104;2022-07-15T04:19:03;11.45;;;4.93;;
23586;SDS011;11971;51.148;4.104;2022-07-15T04:21:31;8.52;;;3.92;;
23586;SDS011;11971;51.148;4.104;2022-07-15T04:23:58;10.63;;;4.50;;
23586;SDS011;11971;51.148;4.104;2022-07-15T04:26:26;9.30;;;4.20;;
23586;SDS011;11971;51.148;4.104;2022-07-15T04:28:55;7.07;;;4.43;;
23586;SDS011;11971;51.148;4.104;2022-07-15T04:31:22;12.20;;;4.60;;
23586;SDS011;11971;51.148;4.104;2022-07-15T04:33:50;8.98;;;4.70;;
23586;SDS011;11971;51.148;4.104;2022-07-15T04:36:17;7.60;;;4.78;;
23586;SDS011;11971;51.148;4.104;2022-07-15T04:38:44;9.60;;;4.45;;
23586;SDS011;11971;51.148;4.104;2022-07-15T04:41:12;9.82;;;4.68;;
23586;SDS011;11971;51.148;4.104;2022-07-15T04:43:39;11.10;;;5.15;;
23586;SDS011;11971;51.148;4.104;2022-07-15T04:46:08;16.25;;;5.15;;
23586;SDS011;11971;51.148;4.104;2022-07-15T04:48:35;14.18;;;5.55;;
23586;SDS011;11971;51.148;4.104;2022-07-15T04:51:20;12.90;;;5.15;;
23586;SDS011;11971;51.148;4.104;2022-07-15T04:53:47;11.93;;;5.28;;
23586;SDS011;11971;51.148;4.104;2022-07-15T04:56:14;15.07;;;5.30;;
23586;SDS011;11971;51.148;4.104;2022-07-15T04:58:42;13.57;;;5.38;;
23586;SDS011;11971;51.148;4.104;2022-07-15T05:01:10;13.55;;;5.13;;
23586;SDS011;11971;51.148;4.104;2022-07-15T05:03:38;10.43;;;4.40;;
23586;SDS011;11971;51.148;4.104;2022-07-15T05:06:05;12.32;;;5.22;;
23586;SDS011;11971;51.148;4.104;2022-07-15T05:08:33;13.57;;;5.53;;
23586;SDS011;11971;51.148;4.104;2022-07-15T05:11:00;16.27;;;5.75;;
23586;SDS011;11971;51.148;4.104;2022-07-15T05:13:27;14.63;;;5.50;;
23586;SDS011;11971;51.148;4.104;2022-07-15T05:15:55;13.13;;;5.70;;
23586;SDS011;11971;51.148;4.104;2022-07-15T05:18:23;13.23;;;4.82;;
23586;SDS011;11971;51.148;4.104;2022-07-15T05:23:18;12.82;;;5.15;;
23586;SDS011;11971;51.148;4.104;2022-07-15T05:25:46;15.25;;;5.57;;
23586;SDS011;11971;51.148;4.104;2022-07-15T05:28:13;13.93;;;5.03;;
23586;SDS011;11971;51.148;4.104;2022-07-15T05:30:41;12.02;;;4.95;;
23586;SDS011;11971;51.148;4.104;2022-07-15T05:33:08;14.38;;;4.22;;
23586;SDS011;11971;51.148;4.104;2022-07-15T05:35:37;9.02;;;4.13;;
23586;SDS011;11971;51.148;4.104;2022-07-15T05:38:04;11.30;;;4.05;;
23586;SDS011;11971;51.148;4.104;2022-07-15T05:40:31;8.95;;;3.85;;
23586;SDS011;11971;51.148;4.104;2022-07-15T05:42:59;12.15;;;4.55;;
23586;SDS011;11971;51.148;4.104;2022-07-15T05:45:26;8.40;;;3.60;;
23586;SDS011;11971;51.148;4.104;2022-07-15T05:47:53;9.63;;;3.60;;
23586;SDS011;11971;51.148;4.104;2022-07-15T05:50:21;8.68;;;3.45;;
23586;SDS011;11971;51.148;4.104;2022-07-15T05:52:49;7.47;;;3.35;;
23586;SDS011;11971;51.148;4.104;2022-07-15T05:55:17;9.27;;;3.33;;
23586;SDS011;11971;51.148;4.104;2022-07-15T05:57:44;9.70;;;3.35;;
23586;SDS011;11971;51.148;4.104;2022-07-15T06:00:12;9.57;;;3.42;;
23586;SDS011;11971;51.148;4.104;2022-07-15T06:02:40;12.10;;;3.60;;
23586;SDS011;11971;51.148;4.104;2022-07-15T06:05:08;11.77;;;3.17;;
23586;SDS011;11971;51.148;4.104;2022-07-15T06:07:35;8.27;;;3.40;;
23586;SDS011;11971;51.148;4.104;2022-07-15T06:10:06;8.93;;;3.33;;
23586;SDS011;11971;51.148;4.104;2022-07-15T06:12:33;9.68;;;3.50;;
23586;SDS011;11971;51.148;4.104;2022-07-15T06:15:01;12.27;;;3.42;;
23586;SDS011;11971;51.148;4.104;2022-07-15T06:17:28;9.20;;;3.10;;
23586;SDS011;11971;51.148;4.104;2022-07-15T06:19:55;8.40;;;2.63;;
23586;SDS011;11971;51.148;4.104;2022-07-15T06:22:23;8.52;;;2.80;;
23586;SDS011;11971;51.148;4.104;2022-07-15T06:24:50;12.80;;;2.88;;
23586;SDS011;11971;51.148;4.104;2022-07-15T06:27:19;4.95;;;2.45;;
23586;SDS011;11971;51.148;4.104;2022-07-15T06:29:49;8.30;;;2.60;;
23586;SDS011;11971;51.148;4.104;2022-07-15T06:32:17;9.90;;;2.75;;
23586;SDS011;11971;51.148;4.104;2022-07-15T06:34:44;5.88;;;2.33;;
23586;SDS011;11971;51.148;4.104;2022-07-15T06:37:12;8.32;;;2.47;;
23586;SDS011;11971;51.148;4.104;2022-07-15T06:39:39;8.07;;;2.45;;
23586;SDS011;11971;51.148;4.104;2022-07-15T06:42:07;9.45;;;2.40;;
23586;SDS011;11971;51.148;4.104;2022-07-15T06:44:36;5.87;;;2.13;;
23586;SDS011;11971;51.148;4.104;2022-07-15T06:47:04;9.40;;;2.00;;
23586;SDS011;11971;51.148;4.104;2022-07-15T06:49:31;11.73;;;2.10;;
23586;SDS011;11971;51.148;4.104;2022-07-15T06:51:59;6.72;;;2.20;;
23586;SDS011;11971;51.148;4.104;2022-07-15T06:54:26;10.10;;;2.00;;
23586;SDS011;11971;51.148;4.104;2022-07-15T06:56:53;5.45;;;1.52;;
23586;SDS011;11971;51.148;4.104;2022-07-15T06:59:21;10.50;;;1.60;;
23586;SDS011;11971;51.148;4.104;2022-07-15T07:01:49;5.55;;;1.50;;
23586;SDS011;11971;51.148;4.104;2022-07-15T07:04:17;5.43;;;1.52;;
23586;SDS011;11971;51.148;4.104;2022-07-15T07:06:44;3.03;;;1.10;;
23586;SDS011;11971;51.148;4.104;2022-07-15T07:09:11;10.27;;;1.52;;
23586;SDS011;11971;51.148;4.104;2022-07-15T07:11:39;4.63;;;1.25;;
23586;SDS011;11971;51.148;4.104;2022-07-15T07:14:06;5.63;;;1.30;;
23586;SDS011;11971;51.148;4.104;2022-07-15T07:16:34;3.95;;;1.33;;
23586;SDS011;11971;51.148;4.104;2022-07-15T07:19:03;7.28;;;1.50;;
23586;SDS011;11971;51.148;4.104;2022-07-15T07:21:30;4.68;;;1.30;;
23586;SDS011;11971;51.148;4.104;2022-07-15T07:23:57;9.05;;;1.38;;
23586;SDS011;11971;51.148;4.104;2022-07-15T07:26:25;7.13;;;1.30;;
23586;SDS011;11971;51.148;4.104;2022-07-15T07:28:52;4.72;;;1.13;;
23586;SDS011;11971;51.148;4.104;2022-07-15T07:31:19;4.10;;;1.40;;
23586;SDS011;11971;51.148;4.104;2022-07-15T07:33:50;6.20;;;1.00;;
23586;SDS011;11971;51.148;4.104;2022-07-15T07:36:19;2.38;;;1.20;;
23586;SDS011;11971;51.148;4.104;2022-07-15T07:38:46;8.25;;;1.67;;
23586;SDS011;11971;51.148;4.104;2022-07-15T07:41:14;5.93;;;1.17;;
23586;SDS011;11971;51.148;4.104;2022-07-15T07:43:41;6.70;;;1.20;;
23586;SDS011;11971;51.148;4.104;2022-07-15T07:46:08;3.63;;;1.17;;
23586;SDS011;11971;51.148;4.104;2022-07-15T07:48:37;7.28;;;1.27;;
23586;SDS011;11971;51.148;4.104;2022-07-15T07:51:04;4.85;;;1.35;;
23586;SDS011;11971;51.148;4.104;2022-07-15T07:53:33;5.60;;;1.40;;
23586;SDS011;11971;51.148;4.104;2022-07-15T07:56:00;6.80;;;1.75;;
23586;SDS011;11971;51.148;4.104;2022-07-15T07:58:27;3.13;;;1.17;;
23586;SDS011;11971;51.148;4.104;2022-07-15T08:00:54;2.63;;;1.10;;
23586;SDS011;11971;51.148;4.104;2022-07-15T08:03:22;6.88;;;1.30;;
23586;SDS011;11971;51.148;4.104;2022-07-15T08:05:49;5.35;;;1.33;;
23586;SDS011;11971;51.148;4.104;2022-07-15T08:08:18;5.18;;;1.23;;
23586;SDS011;11971;51.148;4.104;2022-07-15T08:10:49;6.40;;;1.27;;
23586;SDS011;11971;51.148;4.104;2022-07-15T08:13:17;4.40;;;1.02;;
23586;SDS011;11971;51.148;4.104;2022-07-15T08:15:45;6.40;;;1.20;;
23586;SDS011;11971;51.148;4.104;2022-07-15T08:18:12;3.15;;;1.00;;
23586;SDS011;11971;51.148;4.104;2022-07-15T08:20:40;3.20;;;1.20;;
23586;SDS011;11971;51.148;4.104;2022-07-15T08:23:07;7.57;;;1.25;;
23586;SDS011;11971;51.148;4.104;2022-07-15T08:25:36;4.30;;;1.10;;
23586;SDS011;11971;51.148;4.104;2022-07-15T08:28:06;2.95;;;0.90;;
23586;SDS011;11971;51.148;4.104;2022-07-15T08:30:33;4.13;;;0.93;;
23586;SDS011;11971;51.148;4.104;2022-07-15T08:33:01;4.00;;;1.10;;
23586;SDS011;11971;51.148;4.104;2022-07-15T08:35:29;3.70;;;1.00;;
23586;SDS011;11971;51.148;4.104;2022-07-15T08:37:57;2.72;;;1.13;;
23586;SDS011;11971;51.148;4.104;2022-07-15T08:40:24;2.90;;;0.88;;
23586;SDS011;11971;51.148;4.104;2022-07-15T08:42:53;4.95;;;1.13;;
23586;SDS011;11971;51.148;4.104;2022-07-15T08:45:21;2.60;;;0.98;;
23586;SDS011;11971;51.148;4.104;2022-07-15T08:47:49;3.53;;;1.17;;
23586;SDS011;11971;51.148;4.104;2022-07-15T08:50:18;3.88;;;0.98;;
23586;SDS011;11971;51.148;4.104;2022-07-15T08:52:46;3.75;;;0.90;;
23586;SDS011;11971;51.148;4.104;2022-07-15T08:55:14;3.75;;;0.80;;
23586;SDS011;11971;51.148;4.104;2022-07-15T08:57:44;2.13;;;0.80;;
23586;SDS011;11971;51.148;4.104;2022-07-15T09:00:12;3.40;;;0.90;;
23586;SDS011;11971;51.148;4.104;2022-07-15T09:02:41;5.32;;;1.02;;
23586;SDS011;11971;51.148;4.104;2022-07-15T09:05:19;2.05;;;0.75;;
23586;SDS011;11971;51.148;4.104;2022-07-15T09:10:41;1.35;;;0.65;;
23586;SDS011;11971;51.148;4.104;2022-07-15T09:13:08;3.38;;;0.90;;
23586;SDS011;11971;51.148;4.104;2022-07-15T09:15:36;4.10;;;1.00;;
23586;SDS011;11971;51.148;4.104;2022-07-15T09:18:07;4.57;;;1.00;;
23586;SDS011;11971;51.148;4.104;2022-07-15T09:20:35;1.85;;;0.70;;
23586;SDS011;11971;51.148;4.104;2022-07-15T09:23:02;6.35;;;1.23;;
23586;SDS011;11971;51.148;4.104;2022-07-15T09:25:30;3.53;;;0.80;;
23586;SDS011;11971;51.148;4.104;2022-07-15T09:28:00;3.35;;;0.75;;
23586;SDS011;11971;51.148;4.104;2022-07-15T09:30:31;3.33;;;0.80;;
23586;SDS011;11971;51.148;4.104;2022-07-15T09:33:18;2.67;;;0.85;;
23586;SDS011;11971;51.148;4.104;2022-07-15T09:36:05;2.40;;;0.95;;
23586;SDS011;11971;51.148;4.104;2022-07-15T09:38:35;2.95;;;0.90;;
23586;SDS011;11971;51.148;4.104;2022-07-15T09:41:05;3.53;;;0.90;;
23586;SDS011;11971;51.148;4.104;2022-07-15T09:43:41;3.72;;;0.95;;
23586;SDS011;11971;51.148;4.104;2022-07-15T09:46:09;1.02;;;0.80;;
23586;SDS011;11971;51.148;4.104;2022-07-15T09:48:42;6.72;;;1.05;;
23586;SDS011;11971;51.148;4.104;2022-07-15T09:51:13;4.32;;;1.10;;
23586;SDS011;11971;51.148;4.104;2022-07-15T09:53:40;3.40;;;0.93;;
23586;SDS011;11971;51.148;4.104;2022-07-15T09:56:09;2.63;;;0.95;;
23586;SDS011;11971;51.148;4.104;2022-07-15T09:58:38;4.28;;;1.20;;
23586;SDS011;11971;51.148;4.104;2022-07-15T10:01:06;2.60;;;0.93;;
23586;SDS011;11971;51.148;4.104;2022-07-15T10:03:33;2.97;;;0.98;;
23586;SDS011;11971;51.148;4.104;2022-07-15T10:06:02;4.95;;;1.20;;
23586;SDS011;11971;51.148;4.104;2022-07-15T10:08:30;3.28;;;1.00;;
23586;SDS011;11971;51.148;4.104;2022-07-15T10:10:58;2.67;;;1.15;;
23586;SDS011;11971;51.148;4.104;2022-07-15T10:13:41;4.60;;;1.10;;
23586;SDS011;11971;51.148;4.104;2022-07-15T10:16:13;4.53;;;1.10;;
23586;SDS011;11971;51.148;4.104;2022-07-15T10:18:44;3.08;;;1.35;;
23586;SDS011;11971;51.148;4.104;2022-07-15T10:21:23;4.32;;;1.20;;
23586;SDS011;11971;51.148;4.104;2022-07-15T10:26:50;2.30;;;1.05;;
23586;SDS011;11971;51.148;4.104;2022-07-15T10:29:20;1.98;;;1.20;;
23586;SDS011;11971;51.148;4.104;2022-07-15T10:31:55;3.30;;;1.23;;
23586;SDS011;11971;51.148;4.104;2022-07-15T10:34:22;3.47;;;1.25;;
23586;SDS011;11971;51.148;4.104;2022-07-15T10:36:58;3.78;;;1.23;;
23586;SDS011;11971;51.148;4.104;2022-07-15T10:39:27;4.38;;;1.20;;
23586;SDS011;11971;51.148;4.104;2022-07-15T10:41:55;3.78;;;1.30;;
23586;SDS011;11971;51.148;4.104;2022-07-15T10:44:23;2.22;;;1.30;;
23586;SDS011;11971;51.148;4.104;2022-07-15T10:49:36;2.70;;;1.25;;
23586;SDS011;11971;51.148;4.104;2022-07-15T10:54:50;2.22;;;1.23;;
23586;SDS011;11971;51.148;4.104;2022-07-15T11:00:24;3.90;;;1.58;;
23586;SDS011;11971;51.148;4.104;2022-07-15T11:03:01;6.93;;;1.40;;
23586;SDS011;11971;51.148;4.104;2022-07-15T11:05:28;7.20;;;1.80;;
23586;SDS011;11971;51.148;4.104;2022-07-15T11:07:56;3.30;;;1.40;;
23586;SDS011;11971;51.148;4.104;2022-07-15T11:10:25;3.35;;;1.42;;
23586;SDS011;11971;51.148;4.104;2022-07-15T11:12:56;5.80;;;1.42;;
23586;SDS011;11971;51.148;4.104;2022-07-15T11:15:25;6.18;;;1.50;;
23586;SDS011;11971;51.148;4.104;2022-07-15T11:17:53;4.32;;;1.40;;
23586;SDS011;11971;51.148;4.104;2022-07-15T11:22:49;6.50;;;1.50;;
23586;SDS011;11971;51.148;4.104;2022-07-15T11:25:17;4.33;;;1.83;;
23586;SDS011;11971;51.148;4.104;2022-07-15T11:27:55;4.53;;;1.50;;
23586;SDS011;11971;51.148;4.104;2022-07-15T11:30:25;2.90;;;1.50;;
23586;SDS011;11971;51.148;4.104;2022-07-15T11:32:56;2.80;;;1.50;;
23586;SDS011;11971;51.148;4.104;2022-07-15T11:35:24;7.90;;;1.92;;
23586;SDS011;11971;51.148;4.104;2022-07-15T11:40:20;4.53;;;2.00;;
23586;SDS011;11971;51.148;4.104;2022-07-15T11:43:03;5.53;;;1.80;;
23586;SDS011;11971;51.148;4.104;2022-07-15T11:45:48;2.92;;;1.58;;
23586;SDS011;11971;51.148;4.104;2022-07-15T11:48:15;2.58;;;1.40;;
23586;SDS011;11971;51.148;4.104;2022-07-15T11:50:48;2.83;;;1.80;;
23586;SDS011;11971;51.148;4.104;2022-07-15T11:53:15;5.32;;;1.60;;
23586;SDS011;11971;51.148;4.104;2022-07-15T11:55:47;4.43;;;1.92;;
23586;SDS011;11971;51.148;4.104;2022-07-15T11:58:16;7.05;;;1.95;;
23586;SDS011;11971;51.148;4.104;2022-07-15T12:00:51;5.00;;;1.70;;
23586;SDS011;11971;51.148;4.104;2022-07-15T12:03:18;4.40;;;1.90;;
23586;SDS011;11971;51.148;4.104;2022-07-15T12:05:58;7.95;;;1.75;;
23586;SDS011;11971;51.148;4.104;2022-07-15T12:08:32;5.40;;;1.33;;
23586;SDS011;11971;51.148;4.104;2022-07-15T12:10:59;3.72;;;1.50;;
23586;SDS011;11971;51.148;4.104;2022-07-15T12:13:28;3.67;;;1.65;;
23586;SDS011;11971;51.148;4.104;2022-07-15T12:16:06;5.88;;;1.83;;
23586;SDS011;11971;51.148;4.104;2022-07-15T12:18:34;3.28;;;1.63;;
23586;SDS011;11971;51.148;4.104;2022-07-15T12:21:01;3.20;;;1.40;;
23586;SDS011;11971;51.148;4.104;2022-07-15T12:23:31;2.88;;;1.50;;
23586;SDS011;11971;51.148;4.104;2022-07-15T12:26:05;8.13;;;1.52;;
23586;SDS011;11971;51.148;4.104;2022-07-15T12:28:35;5.00;;;1.60;;
23586;SDS011;11971;51.148;4.104;2022-07-15T12:31:07;6.53;;;1.80;;
23586;SDS011;11971;51.148;4.104;2022-07-15T12:33:34;4.00;;;1.27;;
23586;SDS011;11971;51.148;4.104;2022-07-15T12:36:14;3.72;;;1.67;;
23586;SDS011;11971;51.148;4.104;2022-07-15T12:38:41;3.80;;;1.30;;
23586;SDS011;11971;51.148;4.104;2022-07-15T12:41:10;3.33;;;1.35;;
23586;SDS011;11971;51.148;4.104;2022-07-15T12:43:50;2.75;;;1.23;;
23586;SDS011;11971;51.148;4.104;2022-07-15T12:46:19;4.07;;;1.60;;
23586;SDS011;11971;51.148;4.104;2022-07-15T12:48:49;3.40;;;1.50;;
23586;SDS011;11971;51.148;4.104;2022-07-15T12:51:23;3.80;;;1.75;;
23586;SDS011;11971;51.148;4.104;2022-07-15T12:54:02;5.70;;;1.80;;
23586;SDS011;11971;51.148;4.104;2022-07-15T13:02:53;6.05;;;1.55;;
23586;SDS011;11971;51.148;4.104;2022-07-15T13:05:21;4.28;;;1.70;;
23586;SDS011;11971;51.148;4.104;2022-07-15T13:10:45;5.13;;;1.58;;
23586;SDS011;11971;51.148;4.104;2022-07-15T13:13:15;4.32;;;1.50;;
23586;SDS011;11971;51.148;4.104;2022-07-15T13:15:43;2.47;;;1.45;;
23586;SDS011;11971;51.148;4.104;2022-07-15T13:21:01;4.18;;;1.30;;
23586;SDS011;11971;51.148;4.104;2022-07-15T13:23:29;3.60;;;1.70;;
23586;SDS011;11971;51.148;4.104;2022-07-15T13:25:56;6.93;;;1.90;;
23586;SDS011;11971;51.148;4.104;2022-07-15T13:28:24;6.55;;;1.85;;
23586;SDS011;11971;51.148;4.104;2022-07-15T13:30:56;5.05;;;1.92;;
23586;SDS011;11971;51.148;4.104;2022-07-15T13:33:23;3.03;;;1.58;;
23586;SDS011;11971;51.148;4.104;2022-07-15T13:35:50;7.07;;;1.95;;
23586;SDS011;11971;51.148;4.104;2022-07-15T13:38:20;6.33;;;1.90;;
23586;SDS011;11971;51.148;4.104;2022-07-15T13:40:49;4.25;;;1.67;;
23586;SDS011;11971;51.148;4.104;2022-07-15T13:43:17;7.63;;;1.80;;
23586;SDS011;11971;51.148;4.104;2022-07-15T13:45:44;3.47;;;1.80;;
23586;SDS011;11971;51.148;4.104;2022-07-15T13:48:14;4.45;;;1.90;;
23586;SDS011;11971;51.148;4.104;2022-07-15T13:50:41;4.95;;;1.90;;
23586;SDS011;11971;51.148;4.104;2022-07-15T13:53:36;4.78;;;2.00;;
23586;SDS011;11971;51.148;4.104;2022-07-15T13:56:04;7.57;;;2.03;;
23586;SDS011;11971;51.148;4.104;2022-07-15T13:58:44;3.65;;;1.90;;
23586;SDS011;11971;51.148;4.104;2022-07-15T14:01:12;6.10;;;2.65;;
23586;SDS011;11971;51.148;4.104;2022-07-15T14:03:39;5.03;;;2.30;;
23586;SDS011;11971;51.148;4.104;2022-07-15T14:06:06;8.10;;;2.10;;
23586;SDS011;11971;51.148;4.104;2022-07-15T14:08:35;11.03;;;2.57;;
23586;SDS011;11971;51.148;4.104;2022-07-15T14:11:06;5.50;;;2.50;;
23586;SDS011;11971;51.148;4.104;2022-07-15T14:13:34;3.38;;;1.80;;
23586;SDS011;11971;51.148;4.104;2022-07-15T14:16:01;8.35;;;2.50;;
23586;SDS011;11971;51.148;4.104;2022-07-15T14:18:28;8.60;;;2.40;;
23586;SDS011;11971;51.148;4.104;2022-07-15T14:21:16;6.18;;;2.17;;
23586;SDS011;11971;51.148;4.104;2022-07-15T14:23:44;4.73;;;2.10;;
23586;SDS011;11971;51.148;4.104;2022-07-15T14:26:13;6.28;;;2.55;;
23586;SDS011;11971;51.148;4.104;2022-07-15T14:28:41;11.00;;;2.35;;
23586;SDS011;11971;51.148;4.104;2022-07-15T14:31:09;5.00;;;2.20;;
23586;SDS011;11971;51.148;4.104;2022-07-15T14:51:39;6.07;;;2.60;;
23586;SDS011;11971;51.148;4.104;2022-07-15T14:54:24;7.68;;;2.70;;
23586;SDS011;11971;51.148;4.104;2022-07-15T14:57:00;7.10;;;2.70;;
23586;SDS011;11971;51.148;4.104;2022-07-15T14:59:43;10.80;;;2.88;;
23586;SDS011;11971;51.148;4.104;2022-07-15T15:02:32;6.97;;;2.40;;
23586;SDS011;11971;51.148;4.104;2022-07-15T15:04:59;7.97;;;2.20;;
23586;SDS011;11971;51.148;4.104;2022-07-15T15:07:39;5.65;;;2.40;;
23586;SDS011;11971;51.148;4.104;2022-07-15T15:10:16;5.45;;;2.50;;
23586;SDS011;11971;51.148;4.104;2022-07-15T15:12:59;4.75;;;2.58;;
23586;SDS011;11971;51.148;4.104;2022-07-15T15:18:26;5.75;;;2.58;;
23586;SDS011;11971;51.148;4.104;2022-07-15T15:20:55;5.50;;;2.38;;
23586;SDS011;11971;51.148;4.104;2022-07-15T15:23:28;8.32;;;2.83;;
23586;SDS011;11971;51.148;4.104;2022-07-15T15:25:57;7.47;;;2.67;;
23586;SDS011;11971;51.148;4.104;2022-07-15T15:28:48;4.93;;;2.50;;
23586;SDS011;11971;51.148;4.104;2022-07-15T15:31:39;7.28;;;2.38;;
23586;SDS011;11971;51.148;4.104;2022-07-15T15:34:06;6.60;;;2.33;;
23586;SDS011;11971;51.148;4.104;2022-07-15T15:36:37;8.45;;;2.70;;
23586;SDS011;11971;51.148;4.104;2022-07-15T15:39:23;7.00;;;2.60;;
23586;SDS011;11971;51.148;4.104;2022-07-15T15:41:56;9.75;;;2.50;;
23586;SDS011;11971;51.148;4.104;2022-07-15T15:44:47;10.48;;;2.50;;
23586;SDS011;11971;51.148;4.104;2022-07-15T15:47:15;5.20;;;2.47;;
23586;SDS011;11971;51.148;4.104;2022-07-15T15:49:51;7.03;;;2.25;;
23586;SDS011;11971;51.148;4.104;2022-07-15T15:52:34;5.13;;;2.28;;